Greenwood, Nebraska
Current Conditions -  °F | °C
As of 5:54 AM on Monday 22 Dec 2014 (Local Time) from KLNK Reporting Station
Light Rain Light Rain  
Wind Chill: 37°   Ceiling: 600
Heat Index: 43°   Visibility: 7mi
Dew Point: 42°   Wind: 10mph
Humidity: 97%   Direction: 170°S
Pressure: 29.53"   Gusts: NA
Location:  40.96°N, 96.44°W
Report Text: KLNK 221154Z 17009KT 7SM -RA OVC006 06/06 A2953 RMK AO2 CIG 005V011 SLP002 P0003 60007 70007 T00610056 10067 20061 56016
Loading
Personal Weather Stations






























Interactive Weather Map New forecast layout! Learn more

10-Day Weather Forecast

Advertisements
Track Severe Weather on mobile